createdAt,value
2022-08-10T00:03:07.564Z,41.74
2022-08-10T00:07:09.006Z,43.75
2022-08-10T00:11:15.329Z,43.94
2022-08-10T00:15:52.816Z,43.89
2022-08-10T00:20:04.103Z,44.04
2022-08-10T00:24:04.694Z,44.03
2022-08-10T00:28:06.374Z,44.03
2022-08-10T00:32:07.877Z,42.35
2022-08-10T00:36:09.531Z,42.65
2022-08-10T00:40:11.834Z,42.73
2022-08-10T00:44:13.253Z,43.89
2022-08-10T00:48:14.621Z,43.41
2022-08-10T00:52:20.029Z,44.32
2022-08-10T00:57:14.487Z,42.88
2022-08-10T01:00:43.134Z,43.73
2022-08-10T01:04:59.388Z,42.28
2022-08-10T01:09:02.010Z,41.75
2022-08-10T01:13:29.937Z,41.37
2022-08-10T01:17:53.402Z,41.00
2022-08-10T01:22:16.273Z,40.85
2022-08-10T01:26:37.241Z,40.32
2022-08-10T01:30:45.479Z,39.98
2022-08-10T01:34:51.930Z,40.29
2022-08-10T01:38:54.622Z,39.96
2022-08-10T01:43:07.941Z,40.10
2022-08-10T01:47:33.883Z,40.30
2022-08-10T01:51:49.932Z,40.44
2022-08-10T01:55:54.804Z,40.50
2022-08-10T02:00:02.548Z,40.65
2022-08-10T02:04:09.754Z,40.53
2022-08-10T02:08:17.717Z,41.86
2022-08-10T02:12:26.607Z,43.01
2022-08-10T02:16:30.046Z,43.86
2022-08-10T02:20:44.077Z,45.23
2022-08-10T02:24:47.034Z,45.41
2022-08-10T02:28:49.427Z,45.78
2022-08-10T02:32:52.924Z,45.91
2022-08-10T02:36:57.430Z,46.02
2022-08-10T02:45:12.254Z,46.56
2022-08-10T02:45:42.552Z,46.85
2022-08-10T02:49:51.798Z,47.28
2022-08-10T02:54:01.422Z,46.72
2022-08-10T02:58:13.831Z,46.64
2022-08-10T03:02:27.918Z,47.08
2022-08-10T03:06:39.878Z,47.74
2022-08-10T03:10:43.745Z,48.23
2022-08-10T03:14:47.408Z,48.25
2022-08-10T03:18:51.263Z,48.64
2022-08-10T03:22:56.142Z,49.28
2022-08-10T03:26:59.008Z,49.65
2022-08-10T03:31:01.629Z,49.67
2022-08-10T03:35:05.275Z,49.84
2022-08-10T03:39:06.851Z,50.56
2022-08-10T03:43:09.810Z,50.61
2022-08-10T03:47:16.050Z,50.97
2022-08-10T03:51:19.966Z,51.17
2022-08-10T03:56:29.548Z,51.50
2022-08-10T03:59:45.398Z,52.12
2022-08-10T04:03:46.869Z,53.13
2022-08-10T04:07:48.565Z,53.88
2022-08-10T04:11:50.120Z,54.13
2022-08-10T04:15:51.582Z,54.22
2022-08-10T04:19:55.026Z,55.28
2022-08-10T04:23:59.915Z,54.74
2022-08-10T04:28:03.378Z,54.97
2022-08-10T04:32:06.521Z,55.04
2022-08-10T04:36:11.165Z,55.18
2022-08-10T04:40:28.383Z,55.36
2022-08-10T04:44:33.045Z,55.65
2022-08-10T04:48:41.975Z,55.37
2022-08-10T04:52:56.040Z,54.96
2022-08-10T04:56:57.444Z,55.65
2022-08-10T05:00:58.940Z,55.26
2022-08-10T05:05:00.532Z,55.38
2022-08-10T05:09:02.048Z,54.64
2022-08-10T05:13:03.721Z,55.43
2022-08-10T05:17:05.374Z,54.83
2022-08-10T05:21:07.018Z,54.33
2022-08-10T05:25:14.987Z,53.80
2022-08-10T05:29:16.434Z,54.53
2022-08-10T05:33:17.910Z,54.08
2022-08-10T05:38:11.753Z,52.81
2022-08-10T05:41:46.046Z,50.14
2022-08-10T05:46:17.957Z,46.85
2022-08-10T05:50:16.342Z,44.47
2022-08-10T05:54:18.294Z,42.99
2022-08-10T05:58:19.780Z,42.05
2022-08-10T06:02:35.522Z,41.38
2022-08-10T06:06:47.555Z,40.76
2022-08-10T06:12:27.574Z,39.78
2022-08-10T06:15:21.745Z,38.55
2022-08-10T06:19:24.351Z,37.07
2022-08-10T06:23:28.326Z,36.05
2022-08-10T06:27:34.279Z,35.52
2022-08-10T06:31:47.855Z,34.53
2022-08-10T06:35:55.104Z,34.26
2022-08-10T06:39:56.784Z,33.72
2022-08-10T06:44:05.518Z,33.38
2022-08-10T06:48:32.432Z,32.67
2022-08-10T06:52:36.152Z,32.39
2022-08-10T06:57:01.728Z,32.41
2022-08-10T07:01:13.151Z,31.90
2022-08-10T07:05:20.122Z,31.43
2022-08-10T07:09:22.683Z,31.43
2022-08-10T07:14:16.688Z,31.20
2022-08-10T07:17:47.916Z,31.01
2022-08-10T07:21:51.020Z,30.87
2022-08-10T07:26:00.561Z,30.79
2022-08-10T07:30:03.279Z,30.53
2022-08-10T07:34:07.184Z,30.20
2022-08-10T07:38:12.918Z,30.33
2022-08-10T07:42:17.453Z,29.72
2022-08-10T07:46:22.310Z,29.29
2022-08-10T07:50:25.676Z,29.13
2022-08-10T07:54:31.266Z,29.26
2022-08-10T07:58:39.281Z,28.66
2022-08-10T08:02:53.818Z,28.33
2022-08-10T08:06:58.604Z,27.74
2022-08-10T08:11:00.772Z,27.70
2022-08-10T08:15:14.772Z,27.72
2022-08-10T08:19:28.569Z,27.40
2022-08-10T08:24:05.430Z,27.54
2022-08-10T08:28:02.662Z,27.21
2022-08-10T08:32:05.758Z,26.98
2022-08-10T08:36:09.055Z,26.82
2022-08-10T08:40:27.078Z,26.43
2022-08-10T08:44:59.963Z,26.28
2022-08-10T08:50:07.458Z,26.44
2022-08-10T08:54:23.834Z,26.40
2022-08-10T08:59:04.123Z,25.81
2022-08-10T09:03:28.537Z,25.72
2022-08-10T09:08:00.009Z,25.74
2022-08-10T09:12:33.395Z,25.74
2022-08-10T09:16:59.578Z,25.68
2022-08-10T09:21:13.498Z,25.16
2022-08-10T09:25:19.203Z,25.43
2022-08-10T09:29:31.167Z,25.36
2022-08-10T09:36:25.996Z,25.34
2022-08-10T09:38:46.049Z,25.39
2022-08-10T09:43:14.172Z,25.80
2022-08-10T09:48:01.118Z,24.98
2022-08-10T09:52:11.193Z,25.35
2022-08-10T09:56:31.435Z,24.45
2022-08-10T10:00:44.871Z,24.51
2022-08-10T10:05:12.190Z,24.43
2022-08-10T10:09:13.565Z,24.30
2022-08-10T10:14:03.050Z,24.40
2022-08-10T10:18:32.565Z,24.23
2022-08-10T10:22:52.474Z,24.11
2022-08-10T10:26:59.806Z,23.42
2022-08-10T10:31:04.547Z,23.10
2022-08-10T10:35:24.722Z,23.12
2022-08-10T10:39:27.110Z,22.91
2022-08-10T10:43:44.724Z,22.50
2022-08-10T10:48:29.126Z,22.63
2022-08-10T10:52:55.793Z,22.26
2022-08-10T10:57:22.530Z,21.68
2022-08-10T11:02:17.412Z,21.81
2022-08-10T11:06:40.476Z,21.99
2022-08-10T11:10:48.942Z,21.26
2022-08-10T11:15:09.227Z,21.89
2022-08-10T11:19:18.220Z,22.37
2022-08-10T11:23:32.628Z,22.47
2022-08-10T11:28:00.731Z,21.88
2022-08-10T11:32:09.837Z,21.56
2022-08-10T11:36:46.974Z,21.98
2022-08-10T11:42:12.043Z,21.66
2022-08-10T11:45:51.547Z,20.95
2022-08-10T11:50:03.352Z,21.12
2022-08-10T11:54:26.724Z,20.54
2022-08-10T11:58:52.974Z,20.43
2022-08-10T12:02:58.374Z,20.91
2022-08-10T12:07:04.786Z,20.46
2022-08-10T12:11:29.289Z,20.36
2022-08-10T12:16:05.370Z,19.77
2022-08-10T12:20:10.165Z,20.85
2022-08-10T12:24:17.795Z,20.53
2022-08-10T12:28:49.422Z,20.92
2022-08-10T12:32:54.174Z,20.86
2022-08-10T12:37:19.843Z,20.93
2022-08-10T12:41:43.857Z,20.52
2022-08-10T12:46:06.455Z,20.43
2022-08-10T12:50:32.067Z,20.58
2022-08-10T12:54:36.873Z,21.20
2022-08-10T12:59:00.180Z,20.82
2022-08-10T13:03:06.885Z,20.97
2022-08-10T13:07:10.292Z,21.03
2022-08-10T13:12:38.215Z,20.35
2022-08-10T13:15:57.517Z,20.13
2022-08-10T13:20:12.885Z,20.00
2022-08-10T13:24:17.718Z,20.11
2022-08-10T13:28:39.616Z,20.43
2022-08-10T13:32:49.166Z,20.12
2022-08-10T13:37:00.842Z,20.24
2022-08-10T13:41:03.280Z,19.68
2022-08-10T13:45:17.162Z,19.74
2022-08-10T13:49:21.537Z,19.96
2022-08-10T13:53:28.877Z,19.73
2022-08-10T13:57:33.510Z,19.81
2022-08-10T14:01:36.828Z,19.92
2022-08-10T14:05:42.413Z,19.97
2022-08-10T14:09:47.462Z,19.60
2022-08-10T14:13:58.109Z,19.45
2022-08-10T14:18:00.933Z,19.03
2022-08-10T14:22:02.517Z,18.82
2022-08-10T14:26:09.131Z,18.87
2022-08-10T14:30:15.467Z,18.62
2022-08-10T14:34:19.493Z,18.80
2022-08-10T14:38:43.710Z,18.91
2022-08-10T14:43:11.707Z,18.55
2022-08-10T14:47:54.168Z,19.33
2022-08-10T14:51:44.096Z,18.80
2022-08-10T14:55:59.827Z,18.78
2022-08-10T15:00:24.559Z,19.24
2022-08-10T15:04:28.556Z,19.15
2022-08-10T15:08:37.070Z,19.22
2022-08-10T15:12:40.715Z,18.78
2022-08-10T15:16:42.844Z,18.77
2022-08-10T15:20:44.605Z,18.43
2022-08-10T15:25:05.051Z,18.48
2022-08-10T15:29:24.973Z,18.65
2022-08-10T15:34:04.429Z,17.73
2022-08-10T15:38:08.309Z,17.96
2022-08-10T15:42:18.206Z,18.03
2022-08-10T15:46:30.016Z,17.89
2022-08-10T15:50:39.790Z,18.18
2022-08-10T15:54:54.383Z,18.36
2022-08-10T15:59:12.628Z,18.27
2022-08-10T16:03:22.381Z,18.57
2022-08-10T16:07:45.388Z,18.05
2022-08-10T16:11:56.509Z,17.93
2022-08-10T16:16:04.154Z,18.08
2022-08-10T16:20:08.383Z,17.63
2022-08-10T16:24:15.722Z,17.91
2022-08-10T16:28:23.176Z,18.31
2022-08-10T16:32:27.353Z,18.40
2022-08-10T16:36:39.509Z,18.77
2022-08-10T16:40:44.495Z,19.23
2022-08-10T16:45:04.933Z,19.84
2022-08-10T16:49:08.914Z,20.33
2022-08-10T16:53:17.008Z,20.76
2022-08-10T16:57:20.582Z,20.71
2022-08-10T17:01:25.481Z,20.80
2022-08-10T17:06:10.348Z,21.42
2022-08-10T17:09:51.835Z,21.58
2022-08-10T17:13:57.142Z,21.97
2022-08-10T17:18:01.039Z,22.02
2022-08-10T17:22:10.535Z,22.35
2022-08-10T17:26:16.730Z,22.21
2022-08-10T17:30:34.134Z,22.47
2022-08-10T17:34:40.302Z,22.32
2022-08-10T17:38:49.233Z,22.65
2022-08-10T17:42:51.857Z,22.61
2022-08-10T17:46:54.289Z,23.03
2022-08-10T17:50:58.078Z,23.04
2022-08-10T17:55:07.357Z,23.09
2022-08-10T17:59:17.472Z,23.31
2022-08-10T18:03:26.546Z,23.04
2022-08-10T18:07:35.185Z,22.93
2022-08-10T18:11:46.024Z,23.91
2022-08-10T18:15:49.094Z,23.76
2022-08-10T18:19:58.505Z,23.67
2022-08-10T18:24:06.565Z,24.03
2022-08-10T18:28:14.818Z,24.67
2022-08-10T18:32:18.604Z,25.03
2022-08-10T18:36:21.942Z,25.67
2022-08-10T18:40:35.398Z,26.51
2022-08-10T18:44:42.802Z,26.40
2022-08-10T18:49:02.219Z,26.58
2022-08-10T18:53:12.463Z,27.47
2022-08-10T18:57:38.534Z,29.32
2022-08-10T19:02:08.254Z,30.75
2022-08-10T19:06:16.061Z,32.06
2022-08-10T19:10:50.912Z,32.79
2022-08-10T19:15:08.626Z,33.73
2022-08-10T19:19:26.144Z,34.66
2022-08-10T19:24:04.813Z,38.05
2022-08-10T19:28:33.505Z,40.97
2022-08-10T19:32:59.574Z,40.89
2022-08-10T19:37:22.719Z,40.05
2022-08-10T19:41:41.950Z,41.64
2022-08-10T19:46:05.696Z,41.64
2022-08-10T19:50:19.405Z,42.27
2022-08-10T19:54:44.222Z,43.66
2022-08-10T19:59:03.734Z,41.63
2022-08-10T20:03:23.182Z,43.02
2022-08-10T20:07:52.804Z,42.84
2022-08-10T20:12:44.605Z,42.21
2022-08-10T20:17:52.074Z,44.72
2022-08-10T20:22:01.017Z,45.67
2022-08-10T20:26:28.166Z,45.81
2022-08-10T20:30:34.707Z,45.13
2022-08-10T20:34:48.704Z,45.35
2022-08-10T20:39:02.770Z,45.13
2022-08-10T20:43:34.637Z,44.68
2022-08-10T20:47:55.009Z,45.74
2022-08-10T20:52:02.561Z,45.73
2022-08-10T20:56:41.298Z,44.88
2022-08-10T21:01:11.781Z,46.63
2022-08-10T21:05:16.252Z,46.77
2022-08-10T21:09:39.189Z,45.90
2022-08-10T21:13:58.479Z,46.56
2022-08-10T21:18:20.935Z,47.29
2022-08-10T21:22:31.566Z,47.37
2022-08-10T21:27:02.139Z,46.68
2022-08-10T21:31:31.526Z,46.88
2022-08-10T21:35:44.380Z,47.13
2022-08-10T21:40:32.183Z,47.65
2022-08-10T21:45:58.667Z,48.85
2022-08-10T21:50:13.993Z,48.58
2022-08-10T21:54:44.099Z,48.17
2022-08-10T21:59:15.413Z,49.91
2022-08-10T22:03:39.686Z,50.10
2022-08-10T22:08:01.221Z,50.30
2022-08-10T22:12:24.985Z,50.94
2022-08-10T22:16:55.145Z,51.45
2022-08-10T22:21:45.299Z,51.20
2022-08-10T22:26:09.113Z,50.83
2022-08-10T22:30:35.151Z,51.83
2022-08-10T22:35:04.261Z,51.93
2022-08-10T22:40:11.551Z,51.04
2022-08-10T22:44:34.837Z,51.67
2022-08-10T22:49:00.875Z,52.34
2022-08-10T22:53:08.921Z,52.02
2022-08-10T22:57:34.633Z,51.87
2022-08-10T23:02:08.940Z,51.04
2022-08-10T23:06:13.438Z,51.70
2022-08-10T23:10:18.309Z,52.68
2022-08-10T23:14:21.770Z,53.60
2022-08-10T23:18:56.315Z,53.42
2022-08-10T23:23:09.104Z,54.09
2022-08-10T23:27:37.977Z,53.82
2022-08-10T23:32:00.733Z,55.49
2022-08-10T23:36:29.825Z,56.36
2022-08-10T23:40:22.712Z,55.73
2022-08-10T23:44:27.077Z,55.99
2022-08-10T23:48:32.220Z,56.56
2022-08-10T23:52:34.692Z,57.21
2022-08-10T23:56:39.590Z,56.78
